sensor_id;sensor_type;location;lat;lon;timestamp;temperature;humidity
22635;DHT22;11484;50.858;4.384;2023-07-29T00:02:08;22.40;99.90
22635;DHT22;11484;50.858;4.384;2023-07-29T00:04:33;22.30;99.90
22635;DHT22;11484;50.858;4.384;2023-07-29T00:06:59;22.20;99.90
22635;DHT22;11484;50.858;4.384;2023-07-29T00:09:24;22.20;99.90
22635;DHT22;11484;50.858;4.384;2023-07-29T00:11:50;22.10;99.90
22635;DHT22;11484;50.858;4.384;2023-07-29T00:14:16;22.10;99.90
22635;DHT22;11484;50.858;4.384;2023-07-29T00:16:41;22.00;99.90
22635;DHT22;11484;50.858;4.384;2023-07-29T00:19:08;22.00;99.90
22635;DHT22;11484;50.858;4.384;2023-07-29T00:21:33;21.90;99.90
22635;DHT22;11484;50.858;4.384;2023-07-29T00:23:59;21.90;99.90
22635;DHT22;11484;50.858;4.384;2023-07-29T00:26:27;21.80;99.90
22635;DHT22;11484;50.858;4.384;2023-07-29T00:28:55;21.80;99.90
22635;DHT22;11484;50.858;4.384;2023-07-29T00:31:20;21.70;99.90
22635;DHT22;11484;50.858;4.384;2023-07-29T00:33:46;21.70;99.90
22635;DHT22;11484;50.858;4.384;2023-07-29T00:36:11;21.70;99.90
22635;DHT22;11484;50.858;4.384;2023-07-29T00:38:37;21.60;99.90
22635;DHT22;11484;50.858;4.384;2023-07-29T00:41:03;21.60;99.90
22635;DHT22;11484;50.858;4.384;2023-07-29T00:43:29;21.50;99.90
22635;DHT22;11484;50.858;4.384;2023-07-29T00:45:55;21.50;99.90
22635;DHT22;11484;50.858;4.384;2023-07-29T00:48:23;21.50;99.90
22635;DHT22;11484;50.858;4.384;2023-07-29T00:50:49;21.40;99.90
22635;DHT22;11484;50.858;4.384;2023-07-29T00:53:14;21.40;99.90
22635;DHT22;11484;50.858;4.384;2023-07-29T00:55:41;21.40;99.90
22635;DHT22;11484;50.858;4.384;2023-07-29T00:58:07;21.30;99.90
22635;DHT22;11484;50.858;4.384;2023-07-29T01:00:33;21.30;99.90
22635;DHT22;11484;50.858;4.384;2023-07-29T01:02:58;21.20;99.90
22635;DHT22;11484;50.858;4.384;2023-07-29T01:05:27;21.20;99.90
22635;DHT22;11484;50.858;4.384;2023-07-29T01:11:22;21.20;99.90
22635;DHT22;11484;50.858;4.384;2023-07-29T01:13:50;21.20;99.90
22635;DHT22;11484;50.858;4.384;2023-07-29T01:16:41;21.10;99.90
22635;DHT22;11484;50.858;4.384;2023-07-29T01:19:36;21.10;99.90
22635;DHT22;11484;50.858;4.384;2023-07-29T01:22:08;21.10;99.90
22635;DHT22;11484;50.858;4.384;2023-07-29T01:24:34;21.10;99.90
22635;DHT22;11484;50.858;4.384;2023-07-29T01:26:59;21.00;99.90
22635;DHT22;11484;50.858;4.384;2023-07-29T01:29:27;21.00;99.90
22635;DHT22;11484;50.858;4.384;2023-07-29T01:31:54;21.00;99.90
22635;DHT22;11484;50.858;4.384;2023-07-29T01:34:37;21.00;99.90
22635;DHT22;11484;50.858;4.384;2023-07-29T01:37:08;20.90;99.90
22635;DHT22;11484;50.858;4.384;2023-07-29T01:39:37;20.90;99.90
22635;DHT22;11484;50.858;4.384;2023-07-29T01:42:03;20.90;99.90
22635;DHT22;11484;50.858;4.384;2023-07-29T01:44:29;20.90;99.90
22635;DHT22;11484;50.858;4.384;2023-07-29T01:46:59;21.00;99.90
22635;DHT22;11484;50.858;4.384;2023-07-29T01:49:25;20.90;99.90
22635;DHT22;11484;50.858;4.384;2023-07-29T01:51:50;20.90;99.90
22635;DHT22;11484;50.858;4.384;2023-07-29T01:54:16;20.90;99.90
22635;DHT22;11484;50.858;4.384;2023-07-29T01:56:42;20.90;99.90
22635;DHT22;11484;50.858;4.384;2023-07-29T01:59:08;21.00;99.90
22635;DHT22;11484;50.858;4.384;2023-07-29T02:01:33;21.00;99.90
22635;DHT22;11484;50.858;4.384;2023-07-29T02:03:59;20.90;99.90
22635;DHT22;11484;50.858;4.384;2023-07-29T02:06:25;20.90;99.90
22635;DHT22;11484;50.858;4.384;2023-07-29T02:08:52;20.90;99.90
22635;DHT22;11484;50.858;4.384;2023-07-29T02:11:18;20.80;99.90
22635;DHT22;11484;50.858;4.384;2023-07-29T02:13:46;20.70;99.90
22635;DHT22;11484;50.858;4.384;2023-07-29T02:16:11;20.60;99.90
22635;DHT22;11484;50.858;4.384;2023-07-29T02:18:37;20.60;99.90
22635;DHT22;11484;50.858;4.384;2023-07-29T02:21:02;20.60;99.90
22635;DHT22;11484;50.858;4.384;2023-07-29T02:23:28;20.60;99.90
22635;DHT22;11484;50.858;4.384;2023-07-29T02:25:54;20.70;99.90
22635;DHT22;11484;50.858;4.384;2023-07-29T02:28:20;20.70;99.90
22635;DHT22;11484;50.858;4.384;2023-07-29T02:30:46;20.70;99.90
22635;DHT22;11484;50.858;4.384;2023-07-29T02:33:14;20.70;99.90
22635;DHT22;11484;50.858;4.384;2023-07-29T02:35:40;20.70;99.90
22635;DHT22;11484;50.858;4.384;2023-07-29T02:38:06;20.70;99.90
22635;DHT22;11484;50.858;4.384;2023-07-29T02:40:32;20.70;99.90
22635;DHT22;11484;50.858;4.384;2023-07-29T02:42:57;20.60;99.90
22635;DHT22;11484;50.858;4.384;2023-07-29T02:45:23;20.60;99.90
22635;DHT22;11484;50.858;4.384;2023-07-29T02:47:48;20.70;99.90
22635;DHT22;11484;50.858;4.384;2023-07-29T02:50:14;20.70;99.90
22635;DHT22;11484;50.858;4.384;2023-07-29T02:52:40;20.70;99.90
22635;DHT22;11484;50.858;4.384;2023-07-29T02:55:06;20.60;99.90
22635;DHT22;11484;50.858;4.384;2023-07-29T02:57:31;20.60;99.90
22635;DHT22;11484;50.858;4.384;2023-07-29T02:59:57;20.60;99.90
22635;DHT22;11484;50.858;4.384;2023-07-29T03:02:23;20.60;99.90
22635;DHT22;11484;50.858;4.384;2023-07-29T03:04:48;20.60;99.90
22635;DHT22;11484;50.858;4.384;2023-07-29T03:07:14;20.60;99.90
22635;DHT22;11484;50.858;4.384;2023-07-29T03:09:40;20.60;99.90
22635;DHT22;11484;50.858;4.384;2023-07-29T03:12:07;20.60;99.90
22635;DHT22;11484;50.858;4.384;2023-07-29T03:14:33;20.60;99.90
22635;DHT22;11484;50.858;4.384;2023-07-29T03:17:02;20.70;99.90
22635;DHT22;11484;50.858;4.384;2023-07-29T03:19:29;20.60;99.90
22635;DHT22;11484;50.858;4.384;2023-07-29T03:21:55;20.60;99.90
22635;DHT22;11484;50.858;4.384;2023-07-29T03:24:21;20.60;99.90
22635;DHT22;11484;50.858;4.384;2023-07-29T03:26:47;20.50;99.90
22635;DHT22;11484;50.858;4.384;2023-07-29T03:29:12;20.40;99.90
22635;DHT22;11484;50.858;4.384;2023-07-29T03:31:38;20.40;99.90
22635;DHT22;11484;50.858;4.384;2023-07-29T03:34:04;20.40;99.90
22635;DHT22;11484;50.858;4.384;2023-07-29T03:36:29;20.40;99.90
22635;DHT22;11484;50.858;4.384;2023-07-29T03:38:55;20.40;99.90
22635;DHT22;11484;50.858;4.384;2023-07-29T03:41:20;20.40;99.90
22635;DHT22;11484;50.858;4.384;2023-07-29T03:43:46;20.40;99.90
22635;DHT22;11484;50.858;4.384;2023-07-29T03:46:12;20.30;99.90
22635;DHT22;11484;50.858;4.384;2023-07-29T03:48:38;20.30;99.90
22635;DHT22;11484;50.858;4.384;2023-07-29T03:51:05;20.30;99.90
22635;DHT22;11484;50.858;4.384;2023-07-29T03:53:31;20.30;99.90
22635;DHT22;11484;50.858;4.384;2023-07-29T03:55:56;20.40;99.90
22635;DHT22;11484;50.858;4.384;2023-07-29T03:58:22;20.50;99.90
22635;DHT22;11484;50.858;4.384;2023-07-29T04:00:48;20.50;99.90
22635;DHT22;11484;50.858;4.384;2023-07-29T04:03:13;20.50;99.90
22635;DHT22;11484;50.858;4.384;2023-07-29T04:05:39;20.40;99.90
22635;DHT22;11484;50.858;4.384;2023-07-29T04:08:05;20.40;99.90
22635;DHT22;11484;50.858;4.384;2023-07-29T04:10:31;20.40;99.90
22635;DHT22;11484;50.858;4.384;2023-07-29T04:12:57;20.40;99.90
22635;DHT22;11484;50.858;4.384;2023-07-29T04:15:23;20.40;99.90
22635;DHT22;11484;50.858;4.384;2023-07-29T04:17:51;20.40;99.90
22635;DHT22;11484;50.858;4.384;2023-07-29T04:20:17;20.40;99.90
22635;DHT22;11484;50.858;4.384;2023-07-29T04:22:42;20.40;99.90
22635;DHT22;11484;50.858;4.384;2023-07-29T04:25:08;20.40;99.90
22635;DHT22;11484;50.858;4.384;2023-07-29T04:27:34;20.40;99.90
22635;DHT22;11484;50.858;4.384;2023-07-29T04:30:00;20.40;99.90
22635;DHT22;11484;50.858;4.384;2023-07-29T04:32:25;20.40;99.90
22635;DHT22;11484;50.858;4.384;2023-07-29T04:34:51;20.40;99.90
22635;DHT22;11484;50.858;4.384;2023-07-29T04:37:16;20.40;99.90
22635;DHT22;11484;50.858;4.384;2023-07-29T04:39:45;20.40;99.90
22635;DHT22;11484;50.858;4.384;2023-07-29T04:42:12;20.40;99.90
22635;DHT22;11484;50.858;4.384;2023-07-29T04:44:37;20.30;99.90
22635;DHT22;11484;50.858;4.384;2023-07-29T04:47:03;20.30;99.90
22635;DHT22;11484;50.858;4.384;2023-07-29T04:49:29;20.40;99.90
22635;DHT22;11484;50.858;4.384;2023-07-29T04:51:55;20.40;99.90
22635;DHT22;11484;50.858;4.384;2023-07-29T04:54:20;20.40;99.90
22635;DHT22;11484;50.858;4.384;2023-07-29T04:56:46;20.50;99.90
22635;DHT22;11484;50.858;4.384;2023-07-29T04:59:12;20.50;99.90
22635;DHT22;11484;50.858;4.384;2023-07-29T05:01:38;20.50;99.90
22635;DHT22;11484;50.858;4.384;2023-07-29T05:04:04;20.50;99.90
22635;DHT22;11484;50.858;4.384;2023-07-29T05:06:30;20.50;99.90
22635;DHT22;11484;50.858;4.384;2023-07-29T05:08:57;20.50;99.90
22635;DHT22;11484;50.858;4.384;2023-07-29T05:11:23;20.50;99.90
22635;DHT22;11484;50.858;4.384;2023-07-29T05:13:51;20.50;99.90
22635;DHT22;11484;50.858;4.384;2023-07-29T05:16:16;20.50;99.90
22635;DHT22;11484;50.858;4.384;2023-07-29T05:18:42;20.50;99.90
22635;DHT22;11484;50.858;4.384;2023-07-29T05:21:07;20.60;99.90
22635;DHT22;11484;50.858;4.384;2023-07-29T05:23:34;20.60;99.90
22635;DHT22;11484;50.858;4.384;2023-07-29T05:25:59;20.70;99.90
22635;DHT22;11484;50.858;4.384;2023-07-29T05:28:25;20.80;99.90
22635;DHT22;11484;50.858;4.384;2023-07-29T05:30:50;20.80;99.90
22635;DHT22;11484;50.858;4.384;2023-07-29T05:33:16;20.80;99.90
22635;DHT22;11484;50.858;4.384;2023-07-29T05:35:42;20.80;99.90
22635;DHT22;11484;50.858;4.384;2023-07-29T05:38:07;20.90;99.90
22635;DHT22;11484;50.858;4.384;2023-07-29T05:40:34;20.90;99.90
22635;DHT22;11484;50.858;4.384;2023-07-29T05:42:59;20.90;99.90
22635;DHT22;11484;50.858;4.384;2023-07-29T05:45:26;20.90;99.90
22635;DHT22;11484;50.858;4.384;2023-07-29T05:47:52;21.00;99.90
22635;DHT22;11484;50.858;4.384;2023-07-29T05:50:19;21.10;99.90
22635;DHT22;11484;50.858;4.384;2023-07-29T05:52:45;21.10;99.90
22635;DHT22;11484;50.858;4.384;2023-07-29T05:55:10;21.20;99.90
22635;DHT22;11484;50.858;4.384;2023-07-29T05:57:36;21.40;99.90
22635;DHT22;11484;50.858;4.384;2023-07-29T06:00:02;21.60;99.90
22635;DHT22;11484;50.858;4.384;2023-07-29T06:02:28;21.70;99.90
22635;DHT22;11484;50.858;4.384;2023-07-29T06:04:53;21.80;99.90
22635;DHT22;11484;50.858;4.384;2023-07-29T06:07:22;21.90;99.90
22635;DHT22;11484;50.858;4.384;2023-07-29T06:09:47;21.90;99.90
22635;DHT22;11484;50.858;4.384;2023-07-29T06:12:13;22.00;99.90
22635;DHT22;11484;50.858;4.384;2023-07-29T06:14:39;22.00;99.90
22635;DHT22;11484;50.858;4.384;2023-07-29T06:17:04;22.10;99.90
22635;DHT22;11484;50.858;4.384;2023-07-29T06:19:32;22.20;99.90
22635;DHT22;11484;50.858;4.384;2023-07-29T06:21:58;22.30;99.90
22635;DHT22;11484;50.858;4.384;2023-07-29T06:24:23;22.60;99.90
22635;DHT22;11484;50.858;4.384;2023-07-29T06:26:49;22.80;99.90
22635;DHT22;11484;50.858;4.384;2023-07-29T06:29:15;23.20;99.90
22635;DHT22;11484;50.858;4.384;2023-07-29T06:31:40;23.80;99.90
22635;DHT22;11484;50.858;4.384;2023-07-29T06:34:06;24.20;99.90
22635;DHT22;11484;50.858;4.384;2023-07-29T06:36:31;24.50;99.90
22635;DHT22;11484;50.858;4.384;2023-07-29T06:38:57;24.80;99.90
22635;DHT22;11484;50.858;4.384;2023-07-29T06:41:24;25.10;99.90
22635;DHT22;11484;50.858;4.384;2023-07-29T06:43:50;25.20;99.90
22635;DHT22;11484;50.858;4.384;2023-07-29T06:46:15;25.10;99.90
22635;DHT22;11484;50.858;4.384;2023-07-29T06:48:41;25.20;99.90
22635;DHT22;11484;50.858;4.384;2023-07-29T06:51:07;25.30;99.90
22635;DHT22;11484;50.858;4.384;2023-07-29T06:53:32;25.30;99.90
22635;DHT22;11484;50.858;4.384;2023-07-29T06:55:58;25.10;99.90
22635;DHT22;11484;50.858;4.384;2023-07-29T06:58:24;25.00;99.90
22635;DHT22;11484;50.858;4.384;2023-07-29T07:00:49;24.80;99.90
22635;DHT22;11484;50.858;4.384;2023-07-29T07:03:15;24.50;99.90
22635;DHT22;11484;50.858;4.384;2023-07-29T07:05:41;24.20;99.90
22635;DHT22;11484;50.858;4.384;2023-07-29T07:08:06;24.00;99.90
22635;DHT22;11484;50.858;4.384;2023-07-29T07:10:36;23.90;99.90
22635;DHT22;11484;50.858;4.384;2023-07-29T07:13:01;23.80;99.90
22635;DHT22;11484;50.858;4.384;2023-07-29T07:15:27;23.60;99.90
22635;DHT22;11484;50.858;4.384;2023-07-29T07:17:53;23.60;99.90
22635;DHT22;11484;50.858;4.384;2023-07-29T07:20:18;23.50;99.90
22635;DHT22;11484;50.858;4.384;2023-07-29T07:22:44;23.40;99.90
22635;DHT22;11484;50.858;4.384;2023-07-29T07:25:10;23.20;99.90
22635;DHT22;11484;50.858;4.384;2023-07-29T07:27:36;23.10;99.90
22635;DHT22;11484;50.858;4.384;2023-07-29T07:30:02;23.00;99.90
22635;DHT22;11484;50.858;4.384;2023-07-29T07:32:28;23.00;99.90
22635;DHT22;11484;50.858;4.384;2023-07-29T07:34:54;23.00;99.90
22635;DHT22;11484;50.858;4.384;2023-07-29T07:37:19;23.00;99.90
22635;DHT22;11484;50.858;4.384;2023-07-29T07:39:45;22.90;99.90
22635;DHT22;11484;50.858;4.384;2023-07-29T07:42:11;22.90;99.90
22635;DHT22;11484;50.858;4.384;2023-07-29T07:44:36;22.90;99.90
22635;DHT22;11484;50.858;4.384;2023-07-29T07:47:02;22.80;99.90
22635;DHT22;11484;50.858;4.384;2023-07-29T07:49:32;22.90;99.90
22635;DHT22;11484;50.858;4.384;2023-07-29T07:51:57;23.00;99.90
22635;DHT22;11484;50.858;4.384;2023-07-29T07:54:23;23.20;99.90
22635;DHT22;11484;50.858;4.384;2023-07-29T07:56:49;23.20;99.90
22635;DHT22;11484;50.858;4.384;2023-07-29T07:59:14;23.30;99.90
22635;DHT22;11484;50.858;4.384;2023-07-29T08:01:40;23.40;99.90
22635;DHT22;11484;50.858;4.384;2023-07-29T08:04:06;23.60;99.90
22635;DHT22;11484;50.858;4.384;2023-07-29T08:06:32;23.70;99.90
22635;DHT22;11484;50.858;4.384;2023-07-29T08:08:58;24.00;99.90
22635;DHT22;11484;50.858;4.384;2023-07-29T08:11:24;24.60;99.90
22635;DHT22;11484;50.858;4.384;2023-07-29T08:13:50;25.10;99.90
22635;DHT22;11484;50.858;4.384;2023-07-29T08:16:19;25.80;99.90
22635;DHT22;11484;50.858;4.384;2023-07-29T08:18:45;26.20;99.90
22635;DHT22;11484;50.858;4.384;2023-07-29T08:21:10;26.50;99.90
22635;DHT22;11484;50.858;4.384;2023-07-29T08:23:36;26.60;99.90
22635;DHT22;11484;50.858;4.384;2023-07-29T08:26:04;27.00;99.90
22635;DHT22;11484;50.858;4.384;2023-07-29T08:28:32;27.30;99.90
22635;DHT22;11484;50.858;4.384;2023-07-29T08:30:58;27.80;99.90
22635;DHT22;11484;50.858;4.384;2023-07-29T08:33:25;28.00;99.00
22635;DHT22;11484;50.858;4.384;2023-07-29T08:35:51;27.90;98.00
22635;DHT22;11484;50.858;4.384;2023-07-29T08:38:17;27.70;98.20
22635;DHT22;11484;50.858;4.384;2023-07-29T08:40:49;27.70;98.10
22635;DHT22;11484;50.858;4.384;2023-07-29T08:43:19;27.60;97.80
22635;DHT22;11484;50.858;4.384;2023-07-29T08:45:46;27.70;98.00
22635;DHT22;11484;50.858;4.384;2023-07-29T08:48:12;28.10;97.80
22635;DHT22;11484;50.858;4.384;2023-07-29T08:50:41;28.60;96.60
22635;DHT22;11484;50.858;4.384;2023-07-29T08:53:14;28.90;95.40
22635;DHT22;11484;50.858;4.384;2023-07-29T08:55:39;28.90;94.20
22635;DHT22;11484;50.858;4.384;2023-07-29T08:58:05;28.90;94.40
22635;DHT22;11484;50.858;4.384;2023-07-29T09:00:31;28.90;93.90
22635;DHT22;11484;50.858;4.384;2023-07-29T09:02:57;29.40;93.80
22635;DHT22;11484;50.858;4.384;2023-07-29T09:05:27;30.60;92.00
22635;DHT22;11484;50.858;4.384;2023-07-29T09:07:54;31.30;89.80
22635;DHT22;11484;50.858;4.384;2023-07-29T09:10:26;31.90;86.90
22635;DHT22;11484;50.858;4.384;2023-07-29T09:12:52;32.20;84.40
22635;DHT22;11484;50.858;4.384;2023-07-29T09:15:27;31.90;83.40
22635;DHT22;11484;50.858;4.384;2023-07-29T09:17:53;31.10;84.10
22635;DHT22;11484;50.858;4.384;2023-07-29T09:20:27;30.50;85.80
22635;DHT22;11484;50.858;4.384;2023-07-29T09:22:58;29.90;87.50
22635;DHT22;11484;50.858;4.384;2023-07-29T09:25:30;29.80;88.20
22635;DHT22;11484;50.858;4.384;2023-07-29T09:27:59;29.40;88.40
22635;DHT22;11484;50.858;4.384;2023-07-29T09:30:26;29.10;89.40
22635;DHT22;11484;50.858;4.384;2023-07-29T09:32:56;28.60;90.50
22635;DHT22;11484;50.858;4.384;2023-07-29T09:35:23;28.20;91.40
22635;DHT22;11484;50.858;4.384;2023-07-29T09:37:49;28.10;91.80
22635;DHT22;11484;50.858;4.384;2023-07-29T09:40:18;27.80;92.10
22635;DHT22;11484;50.858;4.384;2023-07-29T09:42:51;27.40;92.80
22635;DHT22;11484;50.858;4.384;2023-07-29T09:45:36;27.00;93.40
22635;DHT22;11484;50.858;4.384;2023-07-29T09:48:03;26.70;94.20
22635;DHT22;11484;50.858;4.384;2023-07-29T09:50:30;26.40;94.70
22635;DHT22;11484;50.858;4.384;2023-07-29T09:52:57;26.10;95.50
22635;DHT22;11484;50.858;4.384;2023-07-29T09:55:26;25.80;96.20
22635;DHT22;11484;50.858;4.384;2023-07-29T09:58:00;25.70;97.40
22635;DHT22;11484;50.858;4.384;2023-07-29T10:00:28;25.60;99.40
22635;DHT22;11484;50.858;4.384;2023-07-29T10:02:55;26.10;99.90
22635;DHT22;11484;50.858;4.384;2023-07-29T10:05:22;27.00;98.60
22635;DHT22;11484;50.858;4.384;2023-07-29T10:07:51;28.20;96.60
22635;DHT22;11484;50.858;4.384;2023-07-29T10:10:17;29.50;95.00
22635;DHT22;11484;50.858;4.384;2023-07-29T10:12:43;30.20;92.50
22635;DHT22;11484;50.858;4.384;2023-07-29T10:15:10;29.80;92.20
22635;DHT22;11484;50.858;4.384;2023-07-29T10:17:38;29.70;91.80
22635;DHT22;11484;50.858;4.384;2023-07-29T10:20:06;30.30;91.50
22635;DHT22;11484;50.858;4.384;2023-07-29T10:22:40;30.80;90.30
22635;DHT22;11484;50.858;4.384;2023-07-29T10:25:33;31.20;89.20
22635;DHT22;11484;50.858;4.384;2023-07-29T10:28:07;30.60;88.90
22635;DHT22;11484;50.858;4.384;2023-07-29T10:30:33;30.00;89.60
22635;DHT22;11484;50.858;4.384;2023-07-29T10:33:03;29.30;90.80
22635;DHT22;11484;50.858;4.384;2023-07-29T10:35:33;28.70;91.50
22635;DHT22;11484;50.858;4.384;2023-07-29T10:38:00;28.10;92.30
22635;DHT22;11484;50.858;4.384;2023-07-29T10:40:26;27.50;94.50
22635;DHT22;11484;50.858;4.384;2023-07-29T10:43:03;26.80;98.50
22635;DHT22;11484;50.858;4.384;2023-07-29T10:45:42;26.30;99.90
22635;DHT22;11484;50.858;4.384;2023-07-29T10:48:11;26.00;99.90
22635;DHT22;11484;50.858;4.384;2023-07-29T10:50:37;25.80;99.90
22635;DHT22;11484;50.858;4.384;2023-07-29T10:53:04;25.70;99.90
22635;DHT22;11484;50.858;4.384;2023-07-29T10:55:33;25.60;99.90
22635;DHT22;11484;50.858;4.384;2023-07-29T11:00:31;25.40;99.90
22635;DHT22;11484;50.858;4.384;2023-07-29T11:03:06;25.20;99.90
22635;DHT22;11484;50.858;4.384;2023-07-29T11:05:44;25.00;99.90
22635;DHT22;11484;50.858;4.384;2023-07-29T11:08:29;24.80;99.90
22635;DHT22;11484;50.858;4.384;2023-07-29T11:11:06;24.70;99.90
22635;DHT22;11484;50.858;4.384;2023-07-29T11:13:34;24.50;99.90
22635;DHT22;11484;50.858;4.384;2023-07-29T11:16:01;24.40;99.90
22635;DHT22;11484;50.858;4.384;2023-07-29T11:18:28;24.30;99.90
22635;DHT22;11484;50.858;4.384;2023-07-29T11:20:55;24.20;99.90
22635;DHT22;11484;50.858;4.384;2023-07-29T11:23:33;24.20;99.90
22635;DHT22;11484;50.858;4.384;2023-07-29T11:25:59;24.20;99.90
22635;DHT22;11484;50.858;4.384;2023-07-29T11:28:28;24.20;99.90
22635;DHT22;11484;50.858;4.384;2023-07-29T11:30:55;24.10;99.90
22635;DHT22;11484;50.858;4.384;2023-07-29T11:33:26;24.10;99.90
22635;DHT22;11484;50.858;4.384;2023-07-29T11:35:54;24.20;99.90
22635;DHT22;11484;50.858;4.384;2023-07-29T11:38:21;24.40;99.90
22635;DHT22;11484;50.858;4.384;2023-07-29T11:40:55;24.60;99.90
22635;DHT22;11484;50.858;4.384;2023-07-29T11:43:21;24.90;99.90
22635;DHT22;11484;50.858;4.384;2023-07-29T11:45:47;25.20;99.90
22635;DHT22;11484;50.858;4.384;2023-07-29T11:48:12;25.30;99.90
22635;DHT22;11484;50.858;4.384;2023-07-29T11:50:38;25.40;99.90
22635;DHT22;11484;50.858;4.384;2023-07-29T11:53:04;25.50;99.90
22635;DHT22;11484;50.858;4.384;2023-07-29T11:55:30;25.60;99.90
22635;DHT22;11484;50.858;4.384;2023-07-29T11:57:56;25.70;99.90
22635;DHT22;11484;50.858;4.384;2023-07-29T12:00:23;25.70;99.90
22635;DHT22;11484;50.858;4.384;2023-07-29T12:02:49;25.50;99.90
22635;DHT22;11484;50.858;4.384;2023-07-29T12:05:15;25.60;99.90
22635;DHT22;11484;50.858;4.384;2023-07-29T12:07:43;25.60;99.90
22635;DHT22;11484;50.858;4.384;2023-07-29T12:10:09;25.40;99.90
22635;DHT22;11484;50.858;4.384;2023-07-29T12:12:55;25.20;99.90
22635;DHT22;11484;50.858;4.384;2023-07-29T12:15:25;25.00;99.90
22635;DHT22;11484;50.858;4.384;2023-07-29T12:17:52;24.70;99.90
22635;DHT22;11484;50.858;4.384;2023-07-29T12:20:19;24.40;99.90
22635;DHT22;11484;50.858;4.384;2023-07-29T12:22:52;24.10;99.90
22635;DHT22;11484;50.858;4.384;2023-07-29T12:25:18;24.10;99.90
22635;DHT22;11484;50.858;4.384;2023-07-29T12:27:44;24.30;99.90
22635;DHT22;11484;50.858;4.384;2023-07-29T12:30:10;24.40;99.90
22635;DHT22;11484;50.858;4.384;2023-07-29T12:32:46;24.40;99.90
22635;DHT22;11484;50.858;4.384;2023-07-29T12:35:12;24.50;99.90
22635;DHT22;11484;50.858;4.384;2023-07-29T12:37:42;24.50;99.90
22635;DHT22;11484;50.858;4.384;2023-07-29T12:42:49;24.60;99.90
22635;DHT22;11484;50.858;4.384;2023-07-29T12:45:15;24.70;99.90
22635;DHT22;11484;50.858;4.384;2023-07-29T12:47:42;24.80;99.90
22635;DHT22;11484;50.858;4.384;2023-07-29T12:50:08;24.70;99.90
22635;DHT22;11484;50.858;4.384;2023-07-29T12:52:33;24.70;99.90
22635;DHT22;11484;50.858;4.384;2023-07-29T12:54:59;24.80;99.90
22635;DHT22;11484;50.858;4.384;2023-07-29T12:57:24;24.80;99.90
22635;DHT22;11484;50.858;4.384;2023-07-29T12:59:50;24.90;99.90
22635;DHT22;11484;50.858;4.384;2023-07-29T13:02:16;25.00;99.90
22635;DHT22;11484;50.858;4.384;2023-07-29T13:04:41;25.10;99.90
22635;DHT22;11484;50.858;4.384;2023-07-29T13:07:07;25.20;99.90
22635;DHT22;11484;50.858;4.384;2023-07-29T13:09:33;25.40;99.90
22635;DHT22;11484;50.858;4.384;2023-07-29T13:11:58;25.30;99.90
22635;DHT22;11484;50.858;4.384;2023-07-29T13:14:24;25.20;99.90
22635;DHT22;11484;50.858;4.384;2023-07-29T13:16:51;25.00;99.90
22635;DHT22;11484;50.858;4.384;2023-07-29T13:19:18;25.00;99.90
22635;DHT22;11484;50.858;4.384;2023-07-29T13:21:44;25.00;99.90
22635;DHT22;11484;50.858;4.384;2023-07-29T13:24:10;25.00;99.90
22635;DHT22;11484;50.858;4.384;2023-07-29T13:26:35;25.00;99.90
22635;DHT22;11484;50.858;4.384;2023-07-29T13:29:01;25.00;99.90
22635;DHT22;11484;50.858;4.384;2023-07-29T13:31:26;24.90;99.90
22635;DHT22;11484;50.858;4.384;2023-07-29T13:33:52;24.80;99.90
22635;DHT22;11484;50.858;4.384;2023-07-29T13:36:18;24.90;99.90
22635;DHT22;11484;50.858;4.384;2023-07-29T13:38:43;24.90;99.90
22635;DHT22;11484;50.858;4.384;2023-07-29T13:41:09;25.00;99.90
22635;DHT22;11484;50.858;4.384;2023-07-29T13:43:35;24.90;99.90
22635;DHT22;11484;50.858;4.384;2023-07-29T13:46:00;24.80;99.90
22635;DHT22;11484;50.858;4.384;2023-07-29T13:48:26;24.80;99.90
22635;DHT22;11484;50.858;4.384;2023-07-29T13:50:52;24.70;99.90
22635;DHT22;11484;50.858;4.384;2023-07-29T13:53:17;24.60;99.90
22635;DHT22;11484;50.858;4.384;2023-07-29T13:55:43;24.70;99.90
22635;DHT22;11484;50.858;4.384;2023-07-29T13:58:09;24.90;99.90
22635;DHT22;11484;50.858;4.384;2023-07-29T14:00:34;24.90;99.90
22635;DHT22;11484;50.858;4.384;2023-07-29T14:03:00;24.90;99.90
22635;DHT22;11484;50.858;4.384;2023-07-29T14:05:26;24.90;99.90
22635;DHT22;11484;50.858;4.384;2023-07-29T14:07:51;24.80;99.90
22635;DHT22;11484;50.858;4.384;2023-07-29T14:10:17;24.70;99.90
22635;DHT22;11484;50.858;4.384;2023-07-29T14:12:43;24.60;99.90
22635;DHT22;11484;50.858;4.384;2023-07-29T14:15:08;24.60;99.90
22635;DHT22;11484;50.858;4.384;2023-07-29T14:17:34;24.60;99.90
22635;DHT22;11484;50.858;4.384;2023-07-29T14:20:01;24.70;99.90
22635;DHT22;11484;50.858;4.384;2023-07-29T14:22:27;24.70;99.90
22635;DHT22;11484;50.858;4.384;2023-07-29T14:24:52;24.70;99.90
22635;DHT22;11484;50.858;4.384;2023-07-29T14:27:18;24.70;99.90
22635;DHT22;11484;50.858;4.384;2023-07-29T14:29:44;24.60;99.90
22635;DHT22;11484;50.858;4.384;2023-07-29T14:32:09;24.70;99.90
22635;DHT22;11484;50.858;4.384;2023-07-29T14:34:38;24.70;99.90
22635;DHT22;11484;50.858;4.384;2023-07-29T14:37:04;24.80;99.90
22635;DHT22;11484;50.858;4.384;2023-07-29T14:39:30;24.80;99.90
22635;DHT22;11484;50.858;4.384;2023-07-29T14:41:55;24.70;99.90
22635;DHT22;11484;50.858;4.384;2023-07-29T14:44:21;24.70;99.90
22635;DHT22;11484;50.858;4.384;2023-07-29T14:46:46;24.80;99.90
22635;DHT22;11484;50.858;4.384;2023-07-29T14:49:12;24.80;99.90
22635;DHT22;11484;50.858;4.384;2023-07-29T14:51:38;24.90;99.90
22635;DHT22;11484;50.858;4.384;2023-07-29T14:54:03;24.80;99.90
22635;DHT22;11484;50.858;4.384;2023-07-29T14:56:29;24.80;99.90
22635;DHT22;11484;50.858;4.384;2023-07-29T14:58:55;24.80;99.90
22635;DHT22;11484;50.858;4.384;2023-07-29T15:01:21;24.80;99.90
22635;DHT22;11484;50.858;4.384;2023-07-29T15:03:46;24.80;99.90
22635;DHT22;11484;50.858;4.384;2023-07-29T15:06:17;24.70;99.90
22635;DHT22;11484;50.858;4.384;2023-07-29T15:08:43;24.80;99.90
22635;DHT22;11484;50.858;4.384;2023-07-29T15:11:09;24.90;99.90
22635;DHT22;11484;50.858;4.384;2023-07-29T15:13:34;25.00;99.90
22635;DHT22;11484;50.858;4.384;2023-07-29T15:16:00;24.90;99.90
22635;DHT22;11484;50.858;4.384;2023-07-29T15:18:26;24.90;99.90
22635;DHT22;11484;50.858;4.384;2023-07-29T15:20:56;24.90;99.90
22635;DHT22;11484;50.858;4.384;2023-07-29T15:23:22;24.90;99.90
22635;DHT22;11484;50.858;4.384;2023-07-29T15:25:47;24.90;99.90
22635;DHT22;11484;50.858;4.384;2023-07-29T15:28:14;24.90;99.90
22635;DHT22;11484;50.858;4.384;2023-07-29T15:30:40;24.90;99.90
22635;DHT22;11484;50.858;4.384;2023-07-29T15:33:06;25.00;99.90
22635;DHT22;11484;50.858;4.384;2023-07-29T15:35:39;24.90;99.90
22635;DHT22;11484;50.858;4.384;2023-07-29T15:38:05;24.80;99.90